createdAt,value
2019-01-19T00:00:27.591Z,4.17
2019-01-19T00:03:20.175Z,4.18
2019-01-19T00:05:51.741Z,4.13
2019-01-19T00:08:29.104Z,4.00
2019-01-19T00:11:12.530Z,4.05
2019-01-19T00:13:46.586Z,4.04
2019-01-19T00:16:29.804Z,4.04
2019-01-19T00:19:20.548Z,4.02
2019-01-19T00:22:06.746Z,4.04
2019-01-19T00:24:56.025Z,3.99
2019-01-19T00:27:30.655Z,4.00
2019-01-19T00:30:11.155Z,3.91
2019-01-19T00:33:04.958Z,3.88
2019-01-19T00:35:52.798Z,3.91
2019-01-19T00:38:39.205Z,3.92
2019-01-19T00:41:22.249Z,3.04
2019-01-19T00:43:53.763Z,3.43
2019-01-19T00:46:27.767Z,3.65
2019-01-19T00:48:59.324Z,3.67
2019-01-19T00:51:39.415Z,3.62
2019-01-19T00:54:17.718Z,3.70
2019-01-19T00:56:57.998Z,3.63
2019-01-19T00:59:28.753Z,3.65
2019-01-19T01:02:09.119Z,3.67
2019-01-19T01:04:46.287Z,3.69
2019-01-19T01:07:29.855Z,3.72
2019-01-19T01:10:01.428Z,3.65
2019-01-19T01:12:44.578Z,3.63
2019-01-19T01:15:19.156Z,3.66
2019-01-19T01:17:50.437Z,3.65
2019-01-19T01:20:37.065Z,3.65
2019-01-19T01:23:11.447Z,3.71
2019-01-19T01:25:59.667Z,3.65
2019-01-19T01:28:31.198Z,3.04
2019-01-19T01:31:05.486Z,3.19
2019-01-19T01:33:54.758Z,3.38
2019-01-19T01:36:26.324Z,3.49
2019-01-19T01:39:12.789Z,3.24
2019-01-19T01:41:58.964Z,3.36
2019-01-19T01:44:54.321Z,3.43
2019-01-19T01:47:49.775Z,3.46
2019-01-19T01:50:37.533Z,3.55
2019-01-19T01:53:23.859Z,3.46
2019-01-19T01:55:52.887Z,3.35
2019-01-19T01:58:24.413Z,3.50
2019-01-19T02:00:55.973Z,3.56
2019-01-19T02:03:27.505Z,3.51
2019-01-19T02:06:18.486Z,3.51
2019-01-19T02:09:16.925Z,3.53
2019-01-19T02:11:54.388Z,3.44
2019-01-19T02:14:25.913Z,3.43
2019-01-19T02:17:05.649Z,3.46
2019-01-19T02:19:46.084Z,3.34
2019-01-19T02:22:38.382Z,3.48
2019-01-19T02:25:12.627Z,3.47
2019-01-19T02:27:49.522Z,3.43
2019-01-19T02:30:35.746Z,3.46
2019-01-19T02:33:13.446Z,3.48
2019-01-19T02:36:06.592Z,3.40
2019-01-19T02:38:44.039Z,3.41
2019-01-19T02:41:30.510Z,3.41
2019-01-19T02:44:02.369Z,3.39
2019-01-19T02:46:48.709Z,3.38
2019-01-19T02:49:39.622Z,3.38
2019-01-19T02:52:23.007Z,3.26
2019-01-19T02:55:19.965Z,3.37
2019-01-19T02:58:07.353Z,3.41
2019-01-19T03:00:59.686Z,3.35
2019-01-19T03:03:46.060Z,3.38
2019-01-19T03:06:26.371Z,3.12
2019-01-19T03:09:15.881Z,3.23
2019-01-19T03:11:56.193Z,3.33
2019-01-19T03:14:48.530Z,3.37
2019-01-19T03:17:22.731Z,3.37
2019-01-19T03:19:56.743Z,3.10
2019-01-19T03:22:37.057Z,2.98
2019-01-19T03:25:26.749Z,3.27
2019-01-19T03:28:14.361Z,3.27
2019-01-19T03:30:57.592Z,3.23
2019-01-19T03:33:40.839Z,3.24
2019-01-19T03:36:28.727Z,3.14
2019-01-19T03:39:09.361Z,3.22
2019-01-19T03:41:55.717Z,3.23
2019-01-19T03:44:27.284Z,3.25
2019-01-19T03:47:18.010Z,3.29
2019-01-19T03:50:21.031Z,3.20
2019-01-19T03:53:10.453Z,3.25
2019-01-19T03:55:56.709Z,3.05
2019-01-19T03:58:43.002Z,3.25
2019-01-19T04:01:31.666Z,3.35
2019-01-19T04:04:09.027Z,3.32
2019-01-19T04:06:57.177Z,3.37
2019-01-19T04:09:43.640Z,3.38
2019-01-19T04:12:23.954Z,3.31
2019-01-19T04:15:11.721Z,3.01
2019-01-19T04:17:45.961Z,3.26
2019-01-19T04:20:26.181Z,3.26
2019-01-19T04:22:55.130Z,3.29
2019-01-19T04:25:26.666Z,3.27
2019-01-19T04:27:54.968Z,3.26
2019-01-19T04:30:23.355Z,2.65
2019-01-19T04:32:51.627Z,2.98
2019-01-19T04:35:19.916Z,3.00
2019-01-19T04:37:48.222Z,3.10
2019-01-19T04:40:16.476Z,3.09
2019-01-19T04:42:45.018Z,2.97
2019-01-19T04:45:13.398Z,3.13
2019-01-19T04:47:41.677Z,3.15
2019-01-19T04:50:11.179Z,3.22
2019-01-19T04:52:39.488Z,3.15
2019-01-19T04:55:08.330Z,3.09
2019-01-19T04:57:36.608Z,3.19
2019-01-19T05:00:08.252Z,3.20
2019-01-19T05:02:37.267Z,3.16
2019-01-19T05:05:06.187Z,3.13
2019-01-19T05:07:34.574Z,3.22
2019-01-19T05:10:03.639Z,3.24
2019-01-19T05:12:31.920Z,2.97
2019-01-19T05:15:00.305Z,3.10
2019-01-19T05:17:28.845Z,3.15
2019-01-19T05:19:57.198Z,3.17
2019-01-19T05:22:25.516Z,3.18
2019-01-19T05:24:53.873Z,3.15
2019-01-19T05:27:22.146Z,2.91
2019-01-19T05:29:50.461Z,3.08
2019-01-19T05:32:19.087Z,3.10
2019-01-19T05:34:47.653Z,3.09
2019-01-19T05:37:15.957Z,3.17
2019-01-19T05:39:44.255Z,3.03
2019-01-19T05:42:12.614Z,3.06
2019-01-19T05:44:40.935Z,3.00
2019-01-19T05:47:09.288Z,3.05
2019-01-19T05:49:37.578Z,3.07
2019-01-19T05:52:05.906Z,3.05
2019-01-19T05:54:34.168Z,3.05
2019-01-19T05:57:02.453Z,3.07
2019-01-19T05:59:30.778Z,3.08
2019-01-19T06:01:59.221Z,3.01
2019-01-19T06:04:28.392Z,2.97
2019-01-19T06:06:56.631Z,2.96
2019-01-19T06:09:24.900Z,3.09
2019-01-19T06:11:53.255Z,2.92
2019-01-19T06:14:21.560Z,3.18
2019-01-19T06:16:49.914Z,3.08
2019-01-19T06:19:18.562Z,3.07
2019-01-19T06:21:48.515Z,3.16
2019-01-19T06:24:16.795Z,3.19
2019-01-19T06:26:45.079Z,3.24
2019-01-19T06:29:13.478Z,3.20
2019-01-19T06:31:41.748Z,3.23
2019-01-19T06:34:10.026Z,3.20
2019-01-19T06:36:38.426Z,3.12
2019-01-19T06:39:08.930Z,3.18
2019-01-19T06:41:37.216Z,3.32
2019-01-19T06:44:05.607Z,3.32
2019-01-19T06:46:33.884Z,3.37
2019-01-19T06:49:02.233Z,3.48
2019-01-19T06:51:30.536Z,3.51
2019-01-19T06:54:01.632Z,3.48
2019-01-19T06:56:29.436Z,3.62
2019-01-19T06:58:57.826Z,3.66
2019-01-19T07:01:26.110Z,3.67
2019-01-19T07:03:54.466Z,3.67
2019-01-19T07:06:23.597Z,3.80
2019-01-19T07:08:51.880Z,3.76
2019-01-19T07:11:20.156Z,3.78
2019-01-19T07:13:48.530Z,3.87
2019-01-19T07:16:16.806Z,3.96
2019-01-19T07:18:45.076Z,4.06
2019-01-19T07:21:13.399Z,4.10
2019-01-19T07:23:41.679Z,4.18
2019-01-19T07:26:10.022Z,4.23
2019-01-19T07:28:38.328Z,3.99
2019-01-19T07:31:06.605Z,4.15
2019-01-19T07:33:34.879Z,4.06
2019-01-19T07:36:03.199Z,4.22
2019-01-19T07:38:31.467Z,4.10
2019-01-19T07:40:59.752Z,3.94
2019-01-19T07:43:28.541Z,3.88
2019-01-19T07:45:56.969Z,4.30
2019-01-19T07:48:25.315Z,4.47
2019-01-19T07:50:53.632Z,4.47
2019-01-19T07:53:21.900Z,4.55
2019-01-19T07:55:50.177Z,4.62
2019-01-19T07:58:18.487Z,4.58
2019-01-19T08:00:46.766Z,4.63
2019-01-19T08:03:15.043Z,4.57
2019-01-19T08:05:43.348Z,4.57
2019-01-19T08:08:11.626Z,4.69
2019-01-19T08:10:39.903Z,4.88
2019-01-19T08:13:08.225Z,4.90
2019-01-19T08:15:36.498Z,3.92
2019-01-19T08:18:05.141Z,4.39
2019-01-19T08:20:33.452Z,4.37
2019-01-19T08:23:01.728Z,4.34
2019-01-19T08:25:30.005Z,4.57
2019-01-19T08:27:58.443Z,4.40
2019-01-19T08:30:28.724Z,4.76
2019-01-19T08:32:56.995Z,4.19
2019-01-19T08:35:25.367Z,4.36
2019-01-19T08:37:53.670Z,4.36
2019-01-19T08:40:33.757Z,4.49
2019-01-19T08:43:15.988Z,3.91
2019-01-19T08:45:44.635Z,4.08
2019-01-19T08:48:13.570Z,4.54
2019-01-19T08:50:41.840Z,4.21
2019-01-19T08:53:10.355Z,3.94
2019-01-19T08:55:38.630Z,4.83
2019-01-19T08:58:06.899Z,4.74
2019-01-19T09:00:35.427Z,5.06
2019-01-19T09:03:03.912Z,4.91
2019-01-19T09:05:32.187Z,4.62
2019-01-19T09:08:01.481Z,4.01
2019-01-19T09:10:30.748Z,4.23
2019-01-19T09:12:59.170Z,4.92
2019-01-19T09:15:27.673Z,5.25
2019-01-19T09:17:55.954Z,4.88
2019-01-19T09:20:24.463Z,4.10
2019-01-19T09:22:54.447Z,3.59
2019-01-19T09:25:22.930Z,4.50
2019-01-19T09:27:51.304Z,4.42
2019-01-19T09:30:21.788Z,5.06
2019-01-19T09:32:50.297Z,5.41
2019-01-19T09:35:18.920Z,4.79
2019-01-19T09:37:47.191Z,4.52
2019-01-19T09:40:16.576Z,4.82
2019-01-19T09:42:45.131Z,4.31
2019-01-19T09:45:20.549Z,4.07
2019-01-19T09:47:49.075Z,4.87
2019-01-19T09:50:18.796Z,4.70
2019-01-19T09:52:47.140Z,4.45
2019-01-19T09:55:15.522Z,4.95
2019-01-19T09:57:44.018Z,5.35
2019-01-19T10:00:21.774Z,5.08
2019-01-19T10:02:50.048Z,5.61
2019-01-19T10:05:23.749Z,5.86
2019-01-19T10:07:52.281Z,5.11
2019-01-19T10:10:26.080Z,5.73
2019-01-19T10:12:54.487Z,6.07
2019-01-19T10:15:23.213Z,5.87
2019-01-19T10:17:51.696Z,4.71
2019-01-19T10:20:29.321Z,5.11
2019-01-19T10:22:57.805Z,5.45
2019-01-19T10:25:26.177Z,5.69
2019-01-19T10:27:54.706Z,5.66
2019-01-19T10:30:29.025Z,5.61
2019-01-19T10:32:57.440Z,5.41
2019-01-19T10:35:25.965Z,4.77
2019-01-19T10:37:56.737Z,5.45
2019-01-19T10:40:24.451Z,5.82
2019-01-19T10:42:52.769Z,6.41
2019-01-19T10:45:30.265Z,6.33
2019-01-19T10:47:58.570Z,6.09
2019-01-19T10:50:27.057Z,6.17
2019-01-19T10:52:55.548Z,6.11
2019-01-19T10:55:24.695Z,5.96
2019-01-19T10:57:53.187Z,6.62
2019-01-19T11:00:23.767Z,6.65
2019-01-19T11:02:52.290Z,6.18
2019-01-19T11:05:20.766Z,6.22
2019-01-19T11:07:49.724Z,6.22
2019-01-19T11:10:29.189Z,6.32
2019-01-19T11:12:58.571Z,6.07
2019-01-19T11:15:26.920Z,6.07
2019-01-19T11:17:55.437Z,5.74
2019-01-19T11:20:29.132Z,6.16
2019-01-19T11:22:57.923Z,5.50
2019-01-19T11:25:26.456Z,6.09
2019-01-19T11:27:54.741Z,5.98
2019-01-19T11:30:25.124Z,6.58
2019-01-19T11:32:53.501Z,6.92
2019-01-19T11:35:21.996Z,6.41
2019-01-19T11:37:50.411Z,6.82
2019-01-19T11:40:23.759Z,6.65
2019-01-19T11:42:52.279Z,6.65
2019-01-19T11:45:23.596Z,5.95
2019-01-19T11:47:52.125Z,5.95
2019-01-19T11:50:20.412Z,6.61
2019-01-19T11:52:48.904Z,6.61
2019-01-19T11:55:19.245Z,6.98
2019-01-19T11:57:49.112Z,7.22
2019-01-19T12:00:19.494Z,7.22
2019-01-19T12:02:47.804Z,6.09
2019-01-19T12:05:17.859Z,6.02
2019-01-19T12:07:46.345Z,6.02
2019-01-19T12:10:17.450Z,6.63
2019-01-19T12:12:45.717Z,6.11
2019-01-19T12:15:15.063Z,6.11
2019-01-19T12:17:43.376Z,5.86
2019-01-19T12:20:17.903Z,6.66
2019-01-19T12:22:46.389Z,7.07
2019-01-19T12:25:17.957Z,6.99
2019-01-19T12:27:46.447Z,7.04
2019-01-19T12:30:17.646Z,7.04
2019-01-19T12:32:45.959Z,7.51
2019-01-19T12:35:14.439Z,7.59
2019-01-19T12:37:42.711Z,7.59
2019-01-19T12:40:13.936Z,7.37
2019-01-19T12:42:42.631Z,6.18
2019-01-19T12:45:14.321Z,6.18
2019-01-19T12:47:42.591Z,6.53
2019-01-19T12:50:16.782Z,6.67
2019-01-19T12:52:45.263Z,7.02
2019-01-19T12:55:14.583Z,7.34
2019-01-19T12:57:42.859Z,7.04
2019-01-19T13:00:17.043Z,7.04
2019-01-19T13:02:45.560Z,7.19
2019-01-19T13:05:17.171Z,6.33
2019-01-19T13:07:46.152Z,6.33
2019-01-19T13:10:29.608Z,6.80
2019-01-19T13:12:58.896Z,6.80
2019-01-19T13:15:33.198Z,7.22
2019-01-19T13:18:23.602Z,7.32
2019-01-19T13:21:10.112Z,7.32
2019-01-19T13:23:59.704Z,7.16
2019-01-19T13:26:45.997Z,7.37
2019-01-19T13:29:32.505Z,6.32
2019-01-19T13:32:15.635Z,6.18
2019-01-19T13:35:05.119Z,6.18
2019-01-19T13:37:51.439Z,6.80
2019-01-19T13:40:37.576Z,6.90
2019-01-19T13:43:27.002Z,6.94
2019-01-19T13:45:58.649Z,7.21
2019-01-19T13:48:42.198Z,7.61
2019-01-19T13:51:16.835Z,7.49
2019-01-19T13:54:00.192Z,7.49
2019-01-19T13:56:37.398Z,7.23
2019-01-19T13:59:28.208Z,7.18
2019-01-19T14:02:14.617Z,7.18
2019-01-19T14:05:00.997Z,6.71
2019-01-19T14:07:44.571Z,6.69
2019-01-19T14:10:22.066Z,6.69
2019-01-19T14:12:56.527Z,6.92
2019-01-19T14:15:29.265Z,6.67
2019-01-19T14:18:03.667Z,6.69
2019-01-19T14:20:42.058Z,7.04
2019-01-19T14:23:19.512Z,6.80
2019-01-19T14:25:53.830Z,6.97
2019-01-19T14:28:25.472Z,6.92
2019-01-19T14:31:08.850Z,6.92
2019-01-19T14:33:43.597Z,6.78
2019-01-19T14:36:32.970Z,6.55
2019-01-19T14:39:31.764Z,6.47
2019-01-19T14:42:22.923Z,6.76
2019-01-19T14:45:00.485Z,6.76
2019-01-19T14:47:49.915Z,6.76
2019-01-19T14:50:31.905Z,6.76
2019-01-19T14:53:27.439Z,6.80
2019-01-19T14:56:07.870Z,6.80
2019-01-19T14:58:42.251Z,6.72
2019-01-19T15:01:34.739Z,6.72
2019-01-19T15:04:08.952Z,6.72
2019-01-19T15:06:52.691Z,6.63
2019-01-19T15:09:29.893Z,6.63
2019-01-19T15:12:07.318Z,6.63
2019-01-19T15:14:47.883Z,6.62
2019-01-19T15:17:19.534Z,6.20
2019-01-19T15:20:12.319Z,6.41
2019-01-19T15:22:43.961Z,6.32
2019-01-19T15:25:21.733Z,6.29
2019-01-19T15:28:05.294Z,6.08
2019-01-19T15:30:45.519Z,6.08
2019-01-19T15:33:32.185Z,6.22
2019-01-19T15:36:06.355Z,5.76
2019-01-19T15:38:58.741Z,5.76
2019-01-19T15:41:41.832Z,5.69
2019-01-19T15:44:16.511Z,5.88
2019-01-19T15:47:16.359Z,5.93
2019-01-19T15:50:22.723Z,5.93
2019-01-19T15:53:12.296Z,5.72
2019-01-19T15:55:58.511Z,5.81
2019-01-19T15:58:38.858Z,5.81
2019-01-19T16:01:16.110Z,5.79
2019-01-19T16:03:59.402Z,5.84
2019-01-19T16:06:39.872Z,5.73
2019-01-19T16:09:18.154Z,6.02
2019-01-19T16:12:02.628Z,6.02
2019-01-19T16:14:49.101Z,5.92
2019-01-19T16:17:26.603Z,5.94
2019-01-19T16:20:16.190Z,5.87
2019-01-19T16:22:50.911Z,5.86
2019-01-19T16:25:37.249Z,5.67
2019-01-19T16:28:17.524Z,5.79
2019-01-19T16:31:06.883Z,5.79
2019-01-19T16:33:41.564Z,5.82
2019-01-19T16:36:13.179Z,5.77
2019-01-19T16:38:56.827Z,5.23
2019-01-19T16:41:34.141Z,5.67
2019-01-19T16:44:31.387Z,5.58
2019-01-19T16:47:11.530Z,5.69
2019-01-19T16:49:45.827Z,5.11
2019-01-19T16:52:35.663Z,4.58
2019-01-19T16:55:19.175Z,4.93
2019-01-19T16:57:58.723Z,5.11
2019-01-19T17:00:39.457Z,5.56
2019-01-19T17:03:22.764Z,5.66
2019-01-19T17:06:03.408Z,5.77
2019-01-19T17:08:37.768Z,4.98
2019-01-19T17:11:35.079Z,5.29
2019-01-19T17:14:18.737Z,5.61
2019-01-19T17:16:53.127Z,5.38
2019-01-19T17:19:42.779Z,5.60
2019-01-19T17:22:17.461Z,5.97
2019-01-19T17:25:24.392Z,5.93
2019-01-19T17:28:07.880Z,5.84
2019-01-19T17:31:05.105Z,5.77
2019-01-19T17:33:39.571Z,5.50
2019-01-19T17:36:20.165Z,5.50
2019-01-19T17:39:11.161Z,5.81
2019-01-19T17:41:54.755Z,5.86
2019-01-19T17:44:35.023Z,5.66
2019-01-19T17:47:15.225Z,5.96
2019-01-19T17:49:58.712Z,5.94
2019-01-19T17:52:30.409Z,6.17
2019-01-19T17:55:20.083Z,5.64
2019-01-19T17:58:03.646Z,5.87
2019-01-19T18:00:40.974Z,5.85
2019-01-19T18:03:15.342Z,5.78
2019-01-19T18:05:49.674Z,5.74
2019-01-19T18:08:36.187Z,5.57
2019-01-19T18:11:32.024Z,5.79
2019-01-19T18:14:03.980Z,6.04
2019-01-19T18:16:38.143Z,6.06
2019-01-19T18:19:24.413Z,6.17
2019-01-19T18:22:12.552Z,6.08
2019-01-19T18:25:04.743Z,6.03
2019-01-19T18:27:54.202Z,5.70
2019-01-19T18:30:28.899Z,5.31
2019-01-19T18:33:30.355Z,5.32
2019-01-19T18:36:01.962Z,5.47
2019-01-19T18:38:57.271Z,5.78
2019-01-19T18:41:43.561Z,5.14
2019-01-19T18:44:20.805Z,5.43
2019-01-19T18:47:08.682Z,5.58
2019-01-19T18:49:59.734Z,5.74
2019-01-19T18:52:35.924Z,5.98
2019-01-19T18:55:10.373Z,5.84
2019-01-19T18:57:54.123Z,6.01
2019-01-19T19:00:49.807Z,6.21
2019-01-19T19:03:37.437Z,6.03
2019-01-19T19:06:18.064Z,6.08
2019-01-19T19:08:58.328Z,6.15
2019-01-19T19:11:38.689Z,5.86
2019-01-19T19:14:25.150Z,5.99
2019-01-19T19:17:11.622Z,5.99
2019-01-19T19:19:58.098Z,6.17
2019-01-19T19:22:41.623Z,6.17
2019-01-19T19:25:16.021Z,6.08
2019-01-19T19:27:50.648Z,6.18
2019-01-19T19:30:28.070Z,6.02
2019-01-19T19:33:11.290Z,6.14
2019-01-19T19:36:14.454Z,5.99
2019-01-19T19:38:54.968Z,5.45
2019-01-19T19:41:29.759Z,5.45
2019-01-19T19:44:31.683Z,5.77
2019-01-19T19:47:18.192Z,5.89
2019-01-19T19:50:22.769Z,6.11
2019-01-19T19:52:51.258Z,6.09
2019-01-19T19:55:18.670Z,5.83
2019-01-19T19:57:47.218Z,5.52
2019-01-19T20:00:16.025Z,5.64
2019-01-19T20:02:44.524Z,5.57
2019-01-19T20:05:13.359Z,5.92
2019-01-19T20:07:41.822Z,5.86
2019-01-19T20:10:17.031Z,5.80
2019-01-19T20:12:43.534Z,5.85
2019-01-19T20:15:12.028Z,5.78
2019-01-19T20:17:40.519Z,5.76
2019-01-19T20:20:10.453Z,5.76
2019-01-19T20:22:38.945Z,5.81
2019-01-19T20:25:08.036Z,5.69
2019-01-19T20:27:36.566Z,5.69
2019-01-19T20:30:08.194Z,5.64
2019-01-19T20:32:36.689Z,5.66
2019-01-19T20:35:06.323Z,5.75
2019-01-19T20:37:34.823Z,5.78
2019-01-19T20:40:04.724Z,5.97
2019-01-19T20:42:33.267Z,5.46
2019-01-19T20:45:01.770Z,5.77
2019-01-19T20:47:30.255Z,5.81
2019-01-19T20:49:58.785Z,5.35
2019-01-19T20:52:27.276Z,5.56
2019-01-19T20:54:55.778Z,5.69
2019-01-19T20:57:24.323Z,5.84
2019-01-19T20:59:52.805Z,5.78
2019-01-19T21:02:21.328Z,5.79
2019-01-19T21:04:49.872Z,5.79
2019-01-19T21:07:18.396Z,5.64
2019-01-19T21:09:48.439Z,5.73
2019-01-19T21:12:16.984Z,5.70
2019-01-19T21:14:45.485Z,5.64
2019-01-19T21:17:13.985Z,5.66
2019-01-19T21:19:43.306Z,5.48
2019-01-19T21:22:11.788Z,5.30
2019-01-19T21:24:40.294Z,5.35
2019-01-19T21:27:08.981Z,5.44
2019-01-19T21:29:37.635Z,5.49
2019-01-19T21:32:06.307Z,5.51
2019-01-19T21:34:34.840Z,5.46
2019-01-19T21:37:03.335Z,5.49
2019-01-19T21:39:31.824Z,5.49
2019-01-19T21:42:00.348Z,5.41
2019-01-19T21:44:28.850Z,5.51
2019-01-19T21:46:57.345Z,5.69
2019-01-19T21:49:25.901Z,5.62
2019-01-19T21:51:54.393Z,5.35
2019-01-19T21:54:22.881Z,5.41
2019-01-19T21:56:51.403Z,5.29
2019-01-19T21:59:19.887Z,5.59
2019-01-19T22:01:48.388Z,5.26
2019-01-19T22:04:16.925Z,5.48
2019-01-19T22:06:45.409Z,5.55
2019-01-19T22:09:13.900Z,5.64
2019-01-19T22:11:42.436Z,5.17
2019-01-19T22:14:10.937Z,5.53
2019-01-19T22:16:39.471Z,5.50
2019-01-19T22:19:08.155Z,5.59
2019-01-19T22:21:37.461Z,5.66
2019-01-19T22:24:05.955Z,5.73
2019-01-19T22:26:34.883Z,5.63
2019-01-19T22:29:03.386Z,5.50
2019-01-19T22:31:31.873Z,5.31
2019-01-19T22:34:00.407Z,5.31
2019-01-19T22:36:28.900Z,5.33
2019-01-19T22:38:57.405Z,5.83
2019-01-19T22:41:25.822Z,5.83
2019-01-19T22:43:54.631Z,5.87
2019-01-19T22:46:23.127Z,5.25
2019-01-19T22:48:51.512Z,5.75
2019-01-19T22:51:20.005Z,5.55
2019-01-19T22:53:48.502Z,5.55
2019-01-19T22:56:16.821Z,5.65
2019-01-19T22:58:45.106Z,5.65
2019-01-19T23:01:19.422Z,5.71
2019-01-19T23:03:47.812Z,5.61
2019-01-19T23:06:16.183Z,5.74
2019-01-19T23:08:44.538Z,5.56
2019-01-19T23:11:12.882Z,5.12
2019-01-19T23:13:41.169Z,5.38
2019-01-19T23:16:09.449Z,5.17
2019-01-19T23:18:37.772Z,5.47
2019-01-19T23:21:06.049Z,5.62
2019-01-19T23:23:35.087Z,5.22
2019-01-19T23:26:03.850Z,5.48
2019-01-19T23:28:32.129Z,5.43
2019-01-19T23:31:00.405Z,5.51
2019-01-19T23:33:28.729Z,5.53
2019-01-19T23:35:57.071Z,5.47
2019-01-19T23:38:25.353Z,5.56
2019-01-19T23:40:53.741Z,5.45
2019-01-19T23:43:22.236Z,5.50
2019-01-19T23:45:50.598Z,5.42
2019-01-19T23:48:18.922Z,5.40
2019-01-19T23:50:47.213Z,5.06
2019-01-19T23:53:15.578Z,5.02
2019-01-19T23:55:43.893Z,5.17
2019-01-19T23:58:12.180Z,5.29
